Time;durP1;ratioP1;P1;durP2;ratioP2;P2;SDS_P1;SDS_P2;PMS_P1;PMS_P2;Temp;Humidity;BMP_temperature;BMP_pressure;BME280_temperature;BME280_humidity;BME280_pressure;Samples;Min_cycle;Max_cycle;Signal;HPM_P1;HPM_P2
2022/02/28 00:02:21;;;;;;;11.00;5.93;;;5.10;99.90;;;;;;6131089;23;20002;-85
2022/02/28 00:04:47;;;;;;;13.70;5.85;;;5.10;99.90;;;;;;6131211;23;20544;-84
2022/02/28 00:07:13;;;;;;;12.68;5.93;;;5.10;99.90;;;;;;6131188;23;20049;-84
2022/02/28 00:09:38;;;;;;;12.10;6.13;;;5.00;99.90;;;;;;6131330;23;20013;-84
2022/02/28 00:12:04;;;;;;;12.60;6.30;;;5.00;99.90;;;;;;6131005;23;20006;-84
2022/02/28 00:14:30;;;;;;;10.73;5.75;;;5.00;99.90;;;;;;6129666;23;20014;-84
2022/02/28 00:16:56;;;;;;;10.48;5.95;;;4.90;99.90;;;;;;6106350;23;20040;-84
2022/02/28 00:19:21;;;;;;;11.98;5.85;;;5.00;99.90;;;;;;6131103;23;20499;-84
2022/02/28 00:21:47;;;;;;;12.35;6.65;;;4.90;99.90;;;;;;6106705;23;20037;-84
2022/02/28 00:24:14;;;;;;;11.00;6.13;;;4.90;99.90;;;;;;6131313;23;20012;-84
2022/02/28 00:26:40;;;;;;;12.15;5.88;;;4.90;99.90;;;;;;6107048;23;20017;-84
2022/02/28 00:29:06;;;;;;;10.27;6.00;;;4.80;99.90;;;;;;6106597;23;20014;-84
2022/02/28 00:31:31;;;;;;;12.63;5.68;;;4.80;99.90;;;;;;6131000;23;20031;-84
2022/02/28 00:34:00;;;;;;;12.10;6.18;;;4.80;99.90;;;;;;6106736;23;20448;-84
2022/02/28 00:36:26;;;;;;;11.10;6.35;;;4.80;99.90;;;;;;6130809;23;20392;-84
2022/02/28 00:38:53;;;;;;;12.27;6.07;;;4.80;99.90;;;;;;6106560;23;20029;-84
2022/02/28 00:41:18;;;;;;;13.38;6.25;;;4.70;99.90;;;;;;6130886;23;20456;-84
2022/02/28 00:43:44;;;;;;;12.07;6.20;;;4.70;99.90;;;;;;6130865;23;20005;-84
2022/02/28 00:46:10;;;;;;;14.48;6.78;;;4.70;99.90;;;;;;6130881;23;20425;-84
2022/02/28 00:48:36;;;;;;;10.00;6.07;;;4.70;99.90;;;;;;6130755;23;19998;-84
2022/02/28 00:51:02;;;;;;;11.73;6.25;;;4.70;99.90;;;;;;6130859;23;20425;-84
2022/02/28 00:53:28;;;;;;;11.65;6.07;;;4.60;99.90;;;;;;6130828;23;20009;-84
2022/02/28 00:55:53;;;;;;;14.25;6.03;;;4.60;99.90;;;;;;6106244;23;20370;-84
2022/02/28 00:58:19;;;;;;;13.15;5.90;;;4.60;99.90;;;;;;6106270;23;20370;-84
2022/02/28 01:00:45;;;;;;;12.20;6.25;;;4.60;99.90;;;;;;6106287;23;20009;-84
2022/02/28 01:03:10;;;;;;;11.18;5.78;;;4.50;99.90;;;;;;6130663;23;20006;-84
2022/02/28 01:05:36;;;;;;;9.88;5.32;;;4.50;99.90;;;;;;6106246;23;20016;-84
2022/02/28 01:08:03;;;;;;;14.20;6.05;;;4.50;99.90;;;;;;6130583;23;20037;-84
2022/02/28 01:10:29;;;;;;;11.27;5.85;;;4.50;99.90;;;;;;6130637;23;20005;-84
2022/02/28 01:12:55;;;;;;;12.35;6.60;;;4.50;99.90;;;;;;6106146;23;20020;-84
2022/02/28 01:15:21;;;;;;;13.20;6.25;;;4.40;99.90;;;;;;6130254;23;20005;-84
2022/02/28 01:17:50;;;;;;;11.50;5.70;;;4.40;99.90;;;;;;6130559;23;20037;-84
2022/02/28 01:20:15;;;;;;;10.40;5.82;;;4.40;99.90;;;;;;6156599;23;20002;-84
2022/02/28 01:22:41;;;;;;;13.05;7.20;;;4.40;99.90;;;;;;6106140;23;20085;-84
2022/02/28 01:25:08;;;;;;;13.77;7.20;;;4.30;99.90;;;;;;6106104;23;20426;-84
2022/02/28 01:27:34;;;;;;;11.75;6.13;;;4.30;99.90;;;;;;6130712;23;20010;-84
2022/02/28 01:30:00;;;;;;;10.88;6.10;;;4.30;99.90;;;;;;6130484;23;20002;-84
2022/02/28 01:32:26;;;;;;;11.70;5.90;;;4.30;99.90;;;;;;6105894;23;20020;-84
2022/02/28 01:34:52;;;;;;;9.50;5.43;;;4.30;99.90;;;;;;6105889;23;20434;-84
2022/02/28 01:37:17;;;;;;;10.25;5.28;;;4.20;99.90;;;;;;6130312;23;20036;-84
2022/02/28 01:39:45;;;;;;;11.88;5.85;;;4.20;99.90;;;;;;6105712;23;20013;-84
2022/02/28 01:42:12;;;;;;;10.57;5.25;;;4.20;99.90;;;;;;6130311;23;20006;-83
2022/02/28 01:44:38;;;;;;;11.70;6.20;;;4.20;99.90;;;;;;6130271;23;20039;-84
2022/02/28 01:47:04;;;;;;;10.57;5.60;;;4.20;99.90;;;;;;6130232;23;20005;-84
2022/02/28 01:49:30;;;;;;;10.68;5.95;;;4.20;99.90;;;;;;6130251;23;20484;-83
2022/02/28 01:51:58;;;;;;;10.30;5.78;;;4.10;99.90;;;;;;6155997;23;20005;-84
2022/02/28 01:54:24;;;;;;;9.40;5.63;;;4.10;99.90;;;;;;6130145;23;20377;-84
2022/02/28 01:56:50;;;;;;;11.18;5.45;;;4.10;99.90;;;;;;6105670;23;20006;-84
2022/02/28 01:59:15;;;;;;;11.63;5.32;;;4.10;99.90;;;;;;6105700;23;20337;-84
2022/02/28 02:01:41;;;;;;;8.77;4.68;;;4.10;99.90;;;;;;6105650;23;20039;-84
2022/02/28 02:04:07;;;;;;;9.93;5.13;;;4.00;99.90;;;;;;6105352;23;20013;-84
2022/02/28 02:06:34;;;;;;;9.75;5.22;;;4.00;99.90;;;;;;6105692;23;20009;-84
2022/02/28 02:09:01;;;;;;;9.80;4.95;;;4.00;99.90;;;;;;6105755;23;20005;-84
2022/02/28 02:11:27;;;;;;;9.32;4.97;;;4.00;99.90;;;;;;6105644;23;20088;-84
2022/02/28 02:13:53;;;;;;;10.35;5.03;;;4.00;99.90;;;;;;6105628;23;20044;-84
2022/02/28 02:16:19;;;;;;;8.98;5.10;;;4.00;99.90;;;;;;6105389;23;20013;-84
2022/02/28 02:18:44;;;;;;;12.90;6.00;;;3.90;99.90;;;;;;6105191;23;20028;-84
2022/02/28 02:21:12;;;;;;;10.50;5.30;;;4.00;99.90;;;;;;6130016;23;20088;-84
2022/02/28 02:23:38;;;;;;;10.18;4.70;;;3.90;99.90;;;;;;6105836;23;20016;-84
2022/02/28 02:26:03;;;;;;;9.85;4.75;;;3.90;99.90;;;;;;6105728;23;20045;-84
2022/02/28 02:28:30;;;;;;;12.00;6.80;;;3.80;99.90;;;;;;6129902;23;20013;-83
2022/02/28 02:30:57;;;;;;;11.52;5.70;;;3.80;99.90;;;;;;6105565;23;20016;-83
2022/02/28 02:33:23;;;;;;;11.57;6.22;;;3.80;99.90;;;;;;6129921;23;20377;-84
2022/02/28 02:35:52;;;;;;;9.10;4.93;;;3.80;99.90;;;;;;6105497;23;20044;-84
2022/02/28 02:38:18;;;;;;;10.45;5.20;;;3.70;99.90;;;;;;6130053;23;20060;-84
2022/02/28 02:40:43;;;;;;;9.88;5.55;;;3.70;99.90;;;;;;6105565;23;20002;-84
2022/02/28 02:43:09;;;;;;;9.10;5.53;;;3.70;99.90;;;;;;6129351;23;20345;-84
2022/02/28 02:45:35;;;;;;;10.35;5.85;;;3.60;99.90;;;;;;6130061;23;20010;-84
2022/02/28 02:48:11;;;;;;;8.45;4.82;;;3.60;99.90;;;;;;6129807;23;20037;-84
2022/02/28 02:50:37;;;;;;;10.07;5.63;;;3.60;99.90;;;;;;6129846;23;20010;-84
2022/02/28 02:53:03;;;;;;;12.18;5.25;;;3.60;99.90;;;;;;6129777;23;20012;-84
2022/02/28 02:55:28;;;;;;;11.80;5.15;;;3.60;99.90;;;;;;6105789;23;20114;-84
2022/02/28 02:57:54;;;;;;;8.70;4.75;;;3.50;99.90;;;;;;6105472;23;20007;-84
2022/02/28 03:00:20;;;;;;;8.48;5.07;;;3.50;99.90;;;;;;6105351;23;20455;-84
2022/02/28 03:02:45;;;;;;;11.00;5.50;;;3.50;99.90;;;;;;6129705;23;20001;-84
2022/02/28 03:05:11;;;;;;;10.38;5.18;;;3.50;99.90;;;;;;6105088;23;20034;-84
2022/02/28 03:07:37;;;;;;;10.60;5.32;;;3.50;99.90;;;;;;6129693;23;20041;-84
2022/02/28 03:10:03;;;;;;;10.20;5.30;;;3.40;99.90;;;;;;6105511;23;20448;-84
2022/02/28 03:12:29;;;;;;;10.30;5.43;;;3.40;99.90;;;;;;6129799;23;20013;-84
2022/02/28 03:14:54;;;;;;;10.63;5.40;;;3.40;99.90;;;;;;6130860;23;20330;-84
2022/02/28 03:17:20;;;;;;;10.30;5.47;;;3.40;99.90;;;;;;6131612;23;20093;-84
2022/02/28 03:19:46;;;;;;;11.15;5.05;;;3.40;99.90;;;;;;6131561;23;20006;-84
2022/02/28 03:22:11;;;;;;;10.73;5.45;;;3.30;99.90;;;;;;6107309;23;20092;-84
2022/02/28 03:24:37;;;;;;;11.73;5.05;;;3.30;99.90;;;;;;6107285;23;20009;-84
2022/02/28 03:27:03;;;;;;;11.57;5.78;;;3.30;99.90;;;;;;6107261;23;20378;-84
2022/02/28 03:29:29;;;;;;;9.63;5.10;;;3.30;99.90;;;;;;6131676;23;20449;-84
2022/02/28 03:31:54;;;;;;;9.38;4.65;;;3.30;99.90;;;;;;6107170;23;20044;-84
2022/02/28 03:34:20;;;;;;;11.57;6.45;;;3.20;99.90;;;;;;6131397;23;20013;-83
2022/02/28 03:36:45;;;;;;;8.57;5.15;;;3.20;99.90;;;;;;6083105;23;20430;-84
2022/02/28 03:39:12;;;;;;;9.63;5.20;;;3.20;99.90;;;;;;6107247;23;20033;-84
2022/02/28 03:41:37;;;;;;;10.00;5.20;;;3.20;99.90;;;;;;6107190;23;20093;-84
2022/02/28 03:44:03;;;;;;;10.02;4.93;;;3.20;99.90;;;;;;6131665;23;20379;-84
2022/02/28 03:46:29;;;;;;;11.95;5.38;;;3.20;99.90;;;;;;6107032;23;20093;-84
2022/02/28 03:48:54;;;;;;;7.88;5.05;;;3.20;99.90;;;;;;6131428;23;20330;-84
2022/02/28 03:51:20;;;;;;;9.13;5.13;;;3.10;99.90;;;;;;6131380;23;20008;-84
2022/02/28 03:53:46;;;;;;;11.45;5.30;;;3.10;99.90;;;;;;6106976;23;20006;-84
2022/02/28 03:56:12;;;;;;;9.65;5.05;;;3.10;99.90;;;;;;6106911;23;20012;-84
2022/02/28 03:58:38;;;;;;;8.88;5.75;;;3.10;99.90;;;;;;6107017;23;20006;-84
2022/02/28 04:01:05;;;;;;;9.02;5.30;;;3.10;99.90;;;;;;6106964;23;20044;-85
2022/02/28 04:03:30;;;;;;;11.02;5.30;;;3.00;99.90;;;;;;6131297;23;20148;-84
2022/02/28 04:05:56;;;;;;;7.85;4.97;;;3.00;99.90;;;;;;6107036;23;20437;-84
2022/02/28 04:08:22;;;;;;;8.50;4.97;;;3.00;99.90;;;;;;6106890;23;20013;-84
2022/02/28 04:10:47;;;;;;;8.82;5.35;;;2.90;99.90;;;;;;6131152;23;20009;-84
2022/02/28 04:13:13;;;;;;;9.98;5.15;;;2.90;99.90;;;;;;6106780;23;20016;-84
2022/02/28 04:15:39;;;;;;;9.75;5.65;;;2.90;99.90;;;;;;6106474;23;20096;-84
2022/02/28 04:18:05;;;;;;;9.55;5.05;;;2.90;99.90;;;;;;6131386;23;20036;-84
2022/02/28 04:20:30;;;;;;;8.23;5.05;;;2.80;99.90;;;;;;6106824;23;20029;-84
2022/02/28 04:22:56;;;;;;;9.60;4.97;;;2.80;99.90;;;;;;6131030;23;20006;-84
2022/02/28 04:25:22;;;;;;;11.23;5.32;;;2.70;99.90;;;;;;6106189;23;20100;-84
2022/02/28 04:27:47;;;;;;;8.38;4.95;;;2.70;99.90;;;;;;6131145;23;20056;-84
2022/02/28 04:33:35;;;;;;;11.27;5.38;;;2.70;99.90;;;;;;6156528;23;20016;-84
2022/02/28 04:36:01;;;;;;;12.32;5.40;;;2.60;99.90;;;;;;6106587;23;20022;-84
2022/02/28 04:38:27;;;;;;;10.63;5.95;;;2.70;99.90;;;;;;6106521;23;20441;-84
2022/02/28 04:40:52;;;;;;;13.07;5.68;;;2.50;99.90;;;;;;6106588;23;20001;-84
2022/02/28 04:43:18;;;;;;;13.82;5.45;;;2.60;99.90;;;;;;6106685;23;20315;-84
2022/02/28 04:45:44;;;;;;;10.10;5.30;;;2.50;99.90;;;;;;6106514;23;20323;-84
2022/02/28 04:48:09;;;;;;;12.05;6.88;;;2.50;99.90;;;;;;6106528;23;20083;-84
2022/02/28 04:50:35;;;;;;;10.70;5.30;;;2.50;99.90;;;;;;6130844;23;20537;-84
2022/02/28 04:53:01;;;;;;;10.48;6.10;;;2.50;99.90;;;;;;6130811;23;20065;-84
2022/02/28 04:55:26;;;;;;;9.43;5.53;;;2.40;99.90;;;;;;6130768;23;20227;-84
2022/02/28 04:57:52;;;;;;;12.73;5.88;;;2.40;99.90;;;;;;6106010;23;20337;-84
2022/02/28 05:00:18;;;;;;;9.73;5.38;;;2.40;99.90;;;;;;6130966;23;20437;-84
2022/02/28 05:02:44;;;;;;;11.15;5.82;;;2.40;99.90;;;;;;6106248;23;20001;-84
2022/02/28 05:05:10;;;;;;;10.55;5.22;;;2.40;99.90;;;;;;6105953;23;20013;-84
2022/02/28 05:07:35;;;;;;;9.15;5.70;;;2.30;99.90;;;;;;6130585;23;20017;-84
2022/02/28 05:10:01;;;;;;;10.18;5.65;;;2.30;99.90;;;;;;6106118;23;20012;-84
2022/02/28 05:12:26;;;;;;;11.20;5.20;;;2.30;99.90;;;;;;6131211;23;20319;-84
2022/02/28 05:14:52;;;;;;;13.90;6.50;;;2.30;99.90;;;;;;6130225;23;20385;-84
2022/02/28 05:17:18;;;;;;;11.75;6.30;;;2.30;99.90;;;;;;6104837;23;20337;-84
2022/02/28 05:19:44;;;;;;;10.25;5.80;;;2.30;99.90;;;;;;6130542;23;20001;-84
2022/02/28 05:22:09;;;;;;;10.60;5.68;;;2.30;99.90;;;;;;6130546;23;20013;-84
2022/02/28 05:24:35;;;;;;;9.50;5.70;;;2.30;99.90;;;;;;6156646;23;20006;-84
2022/02/28 05:27:03;;;;;;;11.75;6.15;;;2.20;99.90;;;;;;6156040;23;20048;-84
2022/02/28 05:29:29;;;;;;;10.52;6.10;;;2.20;99.90;;;;;;6130432;23;20010;-84
2022/02/28 05:31:55;;;;;;;12.05;6.07;;;2.20;99.90;;;;;;6130459;23;20116;-84
2022/02/28 05:34:21;;;;;;;14.25;5.70;;;2.20;99.90;;;;;;6130193;23;20009;-84
2022/02/28 05:36:47;;;;;;;10.85;6.15;;;2.20;99.90;;;;;;6130484;23;20396;-84
2022/02/28 05:39:13;;;;;;;13.02;5.75;;;2.10;99.90;;;;;;6130511;23;20088;-84
2022/02/28 05:41:38;;;;;;;10.48;5.93;;;2.20;99.90;;;;;;6104378;23;20092;-85
2022/02/28 05:44:04;;;;;;;10.27;5.82;;;2.10;99.90;;;;;;6105125;23;20430;-84
2022/02/28 05:46:30;;;;;;;12.57;6.70;;;2.10;99.90;;;;;;6105939;23;20008;-85
2022/02/28 05:48:55;;;;;;;11.13;5.93;;;2.10;99.90;;;;;;6129256;23;20006;-84
2022/02/28 05:51:22;;;;;;;11.38;6.40;;;2.10;99.90;;;;;;6130242;23;20018;-85
2022/02/28 05:53:47;;;;;;;12.38;6.40;;;2.00;99.90;;;;;;6130258;23;20009;-84
2022/02/28 05:56:13;;;;;;;10.63;5.60;;;2.00;99.90;;;;;;6105562;23;20334;-84
2022/02/28 05:58:39;;;;;;;10.30;5.82;;;2.00;99.90;;;;;;6130271;23;20005;-84
2022/02/28 06:01:05;;;;;;;12.50;6.20;;;1.90;99.90;;;;;;6105659;23;20010;-84
2022/02/28 06:03:30;;;;;;;10.65;6.05;;;1.90;99.90;;;;;;6130127;23;20010;-85
2022/02/28 06:05:56;;;;;;;13.25;5.97;;;1.90;99.90;;;;;;6105786;23;20013;-84
2022/02/28 06:08:23;;;;;;;12.68;6.50;;;1.90;99.90;;;;;;6130168;23;20013;-84
2022/02/28 06:10:49;;;;;;;12.65;6.97;;;1.90;99.90;;;;;;6130166;23;20009;-85
2022/02/28 06:13:15;;;;;;;11.70;6.25;;;1.90;99.90;;;;;;6106005;23;20013;-84
2022/02/28 06:15:41;;;;;;;13.35;6.82;;;1.80;99.90;;;;;;6155719;23;20016;-84
2022/02/28 06:18:11;;;;;;;13.35;6.28;;;1.80;99.90;;;;;;6130624;23;20009;-84
2022/02/28 06:20:41;;;;;;;14.05;7.28;;;1.80;99.90;;;;;;6105898;23;20037;-84
2022/02/28 06:23:09;;;;;;;12.77;6.50;;;1.80;99.90;;;;;;6130046;23;20005;-84
2022/02/28 06:25:36;;;;;;;11.10;6.85;;;1.80;99.90;;;;;;6106091;23;20032;-84
2022/02/28 06:28:02;;;;;;;15.45;6.82;;;1.80;99.90;;;;;;6129991;23;20029;-84
2022/02/28 06:30:28;;;;;;;11.75;6.93;;;1.80;99.90;;;;;;6105337;23;20009;-84
2022/02/28 06:32:54;;;;;;;13.38;6.68;;;1.70;99.90;;;;;;6105332;23;20016;-84
2022/02/28 06:35:20;;;;;;;13.43;7.30;;;1.80;99.90;;;;;;6155911;23;20056;-84
2022/02/28 06:37:45;;;;;;;13.13;7.13;;;1.70;99.90;;;;;;6129843;23;20005;-84
2022/02/28 06:40:11;;;;;;;12.52;7.57;;;1.80;99.90;;;;;;6130388;23;20084;-84
2022/02/28 06:42:37;;;;;;;12.88;6.97;;;1.70;99.90;;;;;;6156011;23;20376;-84
2022/02/28 06:45:03;;;;;;;12.30;7.05;;;1.70;99.90;;;;;;6129820;23;20442;-84
2022/02/28 06:47:29;;;;;;;11.95;6.65;;;1.70;99.90;;;;;;6129864;23;20006;-84
2022/02/28 06:49:55;;;;;;;12.60;6.97;;;1.70;99.90;;;;;;6129712;23;20060;-84
2022/02/28 06:52:21;;;;;;;15.10;7.60;;;1.70;99.90;;;;;;6105979;23;20068;-85
2022/02/28 06:54:49;;;;;;;14.80;6.82;;;1.70;99.90;;;;;;6106295;23;20006;-85
2022/02/28 06:57:14;;;;;;;16.45;7.57;;;1.70;99.90;;;;;;6106342;23;20374;-85
2022/02/28 06:59:40;;;;;;;12.45;6.90;;;1.70;99.90;;;;;;6106023;23;20323;-84
2022/02/28 07:02:06;;;;;;;11.32;6.70;;;1.70;99.90;;;;;;6105880;23;20010;-84
2022/02/28 07:04:31;;;;;;;11.65;6.25;;;1.70;99.90;;;;;;6105347;23;20315;-84
2022/02/28 07:06:57;;;;;;;13.70;7.38;;;1.70;99.90;;;;;;6129749;23;20421;-85
2022/02/28 07:09:24;;;;;;;15.27;6.75;;;1.70;99.90;;;;;;6105608;23;20060;-85
2022/02/28 07:11:49;;;;;;;14.57;7.28;;;1.80;99.90;;;;;;6105834;23;20449;-85
2022/02/28 07:14:15;;;;;;;11.70;6.93;;;1.70;99.90;;;;;;6155719;23;20001;-85
2022/02/28 07:16:41;;;;;;;13.15;7.10;;;1.80;99.90;;;;;;6129524;23;20441;-85
2022/02/28 07:19:07;;;;;;;15.95;8.77;;;1.80;99.90;;;;;;6104358;23;20009;-84
2022/02/28 07:21:32;;;;;;;12.90;7.32;;;1.70;99.90;;;;;;6155424;23;19998;-85
2022/02/28 07:23:58;;;;;;;14.80;8.38;;;1.80;99.90;;;;;;6103417;23;20001;-85
2022/02/28 07:26:25;;;;;;;13.52;7.60;;;1.80;99.90;;;;;;6104829;23;20006;-85
2022/02/28 07:28:51;;;;;;;13.75;8.20;;;1.80;99.90;;;;;;6129398;23;20041;-85
2022/02/28 07:31:18;;;;;;;14.93;8.40;;;1.80;99.90;;;;;;6129748;23;20010;-85
2022/02/28 07:33:44;;;;;;;13.55;7.47;;;1.80;99.90;;;;;;6105296;23;20002;-84
2022/02/28 07:36:09;;;;;;;13.10;7.75;;;1.90;99.90;;;;;;6105267;23;20018;-84
2022/02/28 07:38:37;;;;;;;10.73;6.88;;;1.90;99.90;;;;;;6105182;23;20013;-84
2022/02/28 07:41:02;;;;;;;15.40;8.20;;;2.00;99.90;;;;;;6105553;23;20005;-84
2022/02/28 07:43:28;;;;;;;12.20;7.05;;;2.00;99.90;;;;;;6129525;23;20061;-85
2022/02/28 07:45:54;;;;;;;11.00;6.50;;;2.00;99.90;;;;;;6129454;23;20050;-85
2022/02/28 07:48:19;;;;;;;12.25;6.63;;;2.10;99.90;;;;;;6105408;23;20472;-84
2022/02/28 07:50:45;;;;;;;11.63;6.60;;;2.10;99.90;;;;;;6105321;23;20441;-85
2022/02/28 07:53:11;;;;;;;11.57;7.00;;;2.20;99.90;;;;;;6129603;23;20048;-84
2022/02/28 07:55:36;;;;;;;17.27;7.55;;;2.20;99.90;;;;;;6105202;23;20009;-84
2022/02/28 07:58:02;;;;;;;13.85;7.10;;;2.30;99.90;;;;;;6105142;23;20464;-85
2022/02/28 08:00:27;;;;;;;10.20;6.88;;;2.30;99.90;;;;;;6129754;23;20006;-84
2022/02/28 08:02:53;;;;;;;12.30;7.22;;;2.40;99.90;;;;;;6106893;23;20044;-85
2022/02/28 08:05:20;;;;;;;11.32;6.72;;;2.40;99.90;;;;;;6131431;23;20029;-85
2022/02/28 08:07:45;;;;;;;15.20;7.03;;;2.50;99.90;;;;;;6131832;23;20009;-85
2022/02/28 08:10:11;;;;;;;12.07;6.75;;;2.50;99.90;;;;;;6107029;23;20089;-84
2022/02/28 08:12:37;;;;;;;12.50;8.15;;;2.60;99.90;;;;;;6131255;23;20407;-85
2022/02/28 08:15:03;;;;;;;11.75;7.13;;;2.70;99.90;;;;;;6130908;23;20060;-85
2022/02/28 08:17:29;;;;;;;10.93;6.53;;;2.70;99.90;;;;;;6157056;23;20031;-84
2022/02/28 08:19:55;;;;;;;13.15;6.88;;;2.80;99.90;;;;;;6106724;23;20497;-84
2022/02/28 08:22:20;;;;;;;12.88;7.15;;;2.90;99.90;;;;;;6106989;23;20426;-85
2022/02/28 08:24:46;;;;;;;12.43;6.90;;;2.90;99.90;;;;;;6106788;23;20025;-84
2022/02/28 08:27:12;;;;;;;14.15;6.47;;;3.00;99.90;;;;;;6106728;23;20453;-84
2022/02/28 08:29:37;;;;;;;13.63;6.78;;;3.10;99.90;;;;;;6106767;23;20014;-85
2022/02/28 08:32:03;;;;;;;12.85;7.15;;;3.20;99.90;;;;;;6106719;23;20006;-84
2022/02/28 08:34:29;;;;;;;13.82;6.57;;;3.30;99.90;;;;;;6106527;23;20068;-84
2022/02/28 08:36:55;;;;;;;11.77;6.32;;;3.40;99.90;;;;;;6131199;23;20001;-84
2022/02/28 08:39:21;;;;;;;11.40;5.97;;;3.40;99.90;;;;;;6107055;23;20422;-84
2022/02/28 08:41:47;;;;;;;12.23;6.30;;;3.60;99.90;;;;;;6107119;23;20006;-84
2022/02/28 08:44:13;;;;;;;12.75;6.70;;;3.70;99.90;;;;;;6106932;23;20013;-84
2022/02/28 08:46:38;;;;;;;10.60;6.22;;;3.70;99.90;;;;;;6107128;23;20006;-84
2022/02/28 08:49:06;;;;;;;9.38;5.75;;;3.80;99.90;;;;;;6131431;23;20002;-84
2022/02/28 08:51:31;;;;;;;12.02;5.97;;;3.90;99.90;;;;;;6131114;23;20005;-84
2022/02/28 08:53:57;;;;;;;13.50;6.80;;;4.00;99.90;;;;;;6106313;23;20377;-84
2022/02/28 08:56:23;;;;;;;10.18;5.35;;;4.00;99.90;;;;;;6105131;23;20060;-84
2022/02/28 08:58:49;;;;;;;11.48;5.53;;;4.00;99.90;;;;;;6129628;23;20009;-85
2022/02/28 09:01:15;;;;;;;12.75;5.70;;;4.10;99.90;;;;;;6126867;23;20053;-84
2022/02/28 09:03:40;;;;;;;12.68;6.45;;;4.20;99.90;;;;;;6082286;23;20377;-84
2022/02/28 09:06:06;;;;;;;11.55;5.72;;;4.30;99.90;;;;;;6106777;23;20319;-85
2022/02/28 09:08:32;;;;;;;10.77;5.88;;;4.40;99.90;;;;;;6106617;23;20064;-84
2022/02/28 09:10:58;;;;;;;12.68;5.97;;;4.40;99.90;;;;;;6106254;23;20015;-84
2022/02/28 09:13:25;;;;;;;10.02;5.75;;;4.50;99.90;;;;;;6106564;23;20100;-85
2022/02/28 09:15:50;;;;;;;10.73;5.68;;;4.50;99.90;;;;;;6105877;23;20092;-85
2022/02/28 09:18:16;;;;;;;9.70;6.00;;;4.60;99.90;;;;;;6130772;23;20375;-84
2022/02/28 09:20:42;;;;;;;16.15;6.18;;;4.70;99.90;;;;;;6106207;23;20006;-84
2022/02/28 09:23:07;;;;;;;10.75;5.95;;;4.70;99.90;;;;;;6106311;23;20036;-84
2022/02/28 09:25:33;;;;;;;10.73;6.05;;;4.80;99.90;;;;;;6106167;23;20033;-85
2022/02/28 09:27:59;;;;;;;9.18;5.82;;;4.90;99.90;;;;;;6130487;23;20319;-84
2022/02/28 09:30:26;;;;;;;9.32;5.70;;;5.00;99.90;;;;;;6125622;23;20060;-89
2022/02/28 09:32:52;;;;;;;11.35;6.63;;;5.10;99.90;;;;;;6101932;23;20010;-88
2022/02/28 09:35:18;;;;;;;8.82;5.90;;;5.10;99.90;;;;;;6078858;23;20006;-89
2022/02/28 09:37:44;;;;;;;10.55;6.47;;;5.20;99.90;;;;;;6135535;23;20081;-87
2022/02/28 09:40:10;;;;;;;10.32;5.68;;;5.30;99.90;;;;;;6109782;23;20002;-87
2022/02/28 09:42:37;;;;;;;12.07;6.25;;;5.40;99.90;;;;;;6136239;23;20005;-88
2022/02/28 09:45:04;;;;;;;10.52;6.60;;;5.50;99.90;;;;;;6120793;23;20006;-86
2022/02/28 09:47:33;;;;;;;12.10;5.88;;;5.60;99.90;;;;;;6127496;23;20418;-87
2022/02/28 09:49:59;;;;;;;10.27;6.40;;;5.60;99.90;;;;;;6126206;23;20013;-88
2022/02/28 09:52:25;;;;;;;12.48;6.38;;;5.80;99.90;;;;;;6125516;23;20020;-88
2022/02/28 09:54:51;;;;;;;12.13;6.13;;;5.80;99.90;;;;;;6102118;23;20088;-88
2022/02/28 09:57:21;;;;;;;9.35;5.78;;;5.90;99.90;;;;;;6127361;23;20009;-88
2022/02/28 09:59:46;;;;;;;10.75;5.82;;;6.00;99.90;;;;;;6125972;23;20029;-88
2022/02/28 10:02:13;;;;;;;10.65;6.22;;;6.10;99.90;;;;;;6101575;23;20430;-88
2022/02/28 10:04:39;;;;;;;13.45;6.45;;;6.20;99.90;;;;;;6101988;23;20424;-88
2022/02/28 10:07:23;;;;;;;12.23;6.40;;;6.30;99.90;;;;;;6101338;23;20029;-87
2022/02/28 10:10:09;;;;;;;9.15;5.82;;;6.50;99.90;;;;;;6125271;23;20017;-88
2022/02/28 10:12:36;;;;;;;9.88;5.75;;;6.60;99.90;;;;;;6127006;23;20452;-88
2022/02/28 10:15:11;;;;;;;13.27;6.93;;;6.70;99.90;;;;;;6125041;23;20093;-87
2022/02/28 10:17:49;;;;;;;11.48;5.93;;;6.80;99.90;;;;;;6125615;23;19998;-87
2022/02/28 10:20:16;;;;;;;9.48;5.43;;;7.00;99.90;;;;;;6128048;23;19998;-87
2022/02/28 10:22:42;;;;;;;9.75;5.78;;;7.10;99.20;;;;;;6125642;23;20092;-88
2022/02/28 10:25:08;;;;;;;10.07;5.72;;;7.20;99.80;;;;;;6125948;23;20386;-89
2022/02/28 10:27:33;;;;;;;11.75;5.28;;;7.30;99.70;;;;;;6126132;23;20371;-89
2022/02/28 10:29:59;;;;;;;9.63;5.10;;;7.40;99.80;;;;;;6126545;23;20002;-88
2022/02/28 10:32:27;;;;;;;10.02;5.05;;;7.50;99.90;;;;;;6102912;23;20021;-88
2022/02/28 10:37:46;;;;;;;8.63;5.20;;;7.80;98.70;;;;;;6126205;23;20130;-88
2022/02/28 10:40:13;;;;;;;12.63;6.07;;;7.90;97.70;;;;;;6101347;23;20002;-89
2022/02/28 10:42:46;;;;;;;10.00;5.38;;;8.00;96.80;;;;;;6126721;23;20029;-89
2022/02/28 10:45:24;;;;;;;9.35;5.32;;;8.10;93.80;;;;;;6078447;23;20050;-89
2022/02/28 10:47:52;;;;;;;10.63;6.13;;;8.20;95.10;;;;;;6126597;23;20010;-89
2022/02/28 10:50:41;;;;;;;11.50;6.00;;;8.30;94.60;;;;;;6125988;23;20390;-88
2022/02/28 10:53:18;;;;;;;9.85;5.40;;;8.50;94.00;;;;;;6125894;23;20002;-89
2022/02/28 10:55:46;;;;;;;8.70;5.00;;;8.60;94.90;;;;;;6125685;23;20002;-89
2022/02/28 10:58:14;;;;;;;11.65;6.57;;;8.70;93.00;;;;;;6125988;23;20024;-89
2022/02/28 11:01:09;;;;;;;7.93;4.90;;;8.80;92.70;;;;;;6126102;23;19998;-89
2022/02/28 11:03:45;;;;;;;10.40;4.93;;;8.90;90.80;;;;;;6077587;23;20072;-89
2022/02/28 11:06:12;;;;;;;7.97;4.85;;;9.10;90.50;;;;;;6125879;23;20009;-89
2022/02/28 11:08:42;;;;;;;9.50;5.47;;;9.20;91.80;;;;;;6078347;23;20077;-90
2022/02/28 11:11:11;;;;;;;10.13;5.82;;;9.30;92.00;;;;;;6125658;23;20085;-89
2022/02/28 11:13:37;;;;;;;7.97;5.30;;;9.40;92.40;;;;;;6126093;23;20006;-89
2022/02/28 11:16:03;;;;;;;8.27;5.65;;;9.50;92.10;;;;;;6125614;23;20477;-89
2022/02/28 11:18:29;;;;;;;10.90;5.93;;;9.60;91.60;;;;;;6101661;23;20010;-89
2022/02/28 11:20:55;;;;;;;9.07;5.57;;;9.70;90.50;;;;;;6126237;23;20006;-89
2022/02/28 11:23:24;;;;;;;8.32;5.35;;;9.90;89.20;;;;;;6125507;23;20005;-89
2022/02/28 11:25:50;;;;;;;9.05;5.43;;;9.90;84.70;;;;;;6125454;23;20005;-89
2022/02/28 11:28:17;;;;;;;10.95;5.20;;;10.00;84.80;;;;;;6099804;23;20010;-90
2022/02/28 11:30:44;;;;;;;9.45;6.07;;;10.10;84.30;;;;;;6077217;23;20021;-89
2022/02/28 11:33:14;;;;;;;9.85;5.85;;;10.10;83.80;;;;;;6101105;23;20426;-89
2022/02/28 11:35:55;;;;;;;9.52;6.03;;;10.20;82.40;;;;;;6126332;23;20002;-89
2022/02/28 11:38:22;;;;;;;;;;;10.30;83.40;;;;;;6103789;23;20320;-90
2022/02/28 11:41:06;;;;;;;8.63;5.18;;;10.40;81.80;;;;;;6127579;23;19901;-89
2022/02/28 11:43:34;;;;;;;9.77;5.75;;;10.40;80.30;;;;;;6127466;23;20002;-87
2022/02/28 11:45:59;;;;;;;11.15;6.60;;;10.50;83.00;;;;;;6128613;23;20006;-87
2022/02/28 11:48:34;;;;;;;9.80;5.95;;;10.60;81.40;;;;;;6126844;23;20140;-90
2022/02/28 11:51:03;;;;;;;11.10;5.80;;;10.70;81.70;;;;;;6126923;23;20057;-90
2022/02/28 11:53:45;;;;;;;9.95;5.95;;;10.70;83.40;;;;;;6127670;23;20049;-90
2022/02/28 11:56:17;;;;;;;10.20;6.00;;;10.90;81.20;;;;;;6127673;23;20359;-90
2022/02/28 11:59:00;;;;;;;9.95;5.55;;;10.90;80.80;;;;;;6127415;23;20006;-89
2022/02/28 12:01:33;;;;;;;9.43;5.75;;;11.10;79.20;;;;;;6129311;23;20393;-89
2022/02/28 12:04:10;;;;;;;9.63;5.75;;;11.20;77.10;;;;;;6128686;23;20089;-88
2022/02/28 12:07:07;;;;;;;9.32;5.78;;;11.30;77.00;;;;;;6136681;23;20002;-88
2022/02/28 12:09:32;;;;;;;9.35;5.95;;;11.40;77.20;;;;;;6131788;23;20001;-88
2022/02/28 12:12:15;;;;;;;9.10;5.72;;;11.50;78.80;;;;;;6129753;23;20013;-89
2022/02/28 12:15:00;;;;;;;8.45;5.00;;;11.60;72.30;;;;;;6137297;23;20005;-90
2022/02/28 12:17:35;;;;;;;10.75;6.28;;;11.70;73.40;;;;;;6127976;23;20010;-85
2022/02/28 12:20:21;;;;;;;7.35;5.30;;;11.80;71.00;;;;;;6126627;23;20337;-85
2022/02/28 12:22:52;;;;;;;9.27;5.30;;;11.90;70.30;;;;;;6126952;23;20430;-86
2022/02/28 12:25:37;;;;;;;8.40;5.55;;;12.00;73.10;;;;;;6126314;23;20017;-83
2022/02/28 12:28:21;;;;;;;8.25;5.43;;;12.10;68.10;;;;;;6125769;23;20448;-83
2022/02/28 12:30:48;;;;;;;8.52;5.75;;;12.20;67.70;;;;;;6127905;23;20382;-83
2022/02/28 12:33:16;;;;;;;8.40;4.97;;;12.30;68.70;;;;;;6127700;23;20002;-83
2022/02/28 12:35:50;;;;;;;10.38;5.40;;;12.30;70.60;;;;;;6126084;23;20010;-83
2022/02/28 12:38:16;;;;;;;9.43;5.55;;;12.40;68.50;;;;;;6127839;23;20005;-83
2022/02/28 12:40:59;;;;;;;7.88;5.10;;;12.50;66.20;;;;;;6126096;23;20047;-83
2022/02/28 12:43:26;;;;;;;9.80;5.47;;;12.50;64.90;;;;;;6127642;23;20437;-83
2022/02/28 12:45:55;;;;;;;7.60;4.55;;;12.50;63.30;;;;;;6126060;23;20010;-84
2022/02/28 12:48:23;;;;;;;7.38;5.15;;;12.60;65.50;;;;;;6125858;23;20041;-84
2022/02/28 12:50:51;;;;;;;7.95;5.00;;;12.60;63.10;;;;;;6126019;23;20467;-84
2022/02/28 12:53:17;;;;;;;9.27;5.68;;;12.70;65.30;;;;;;6126154;23;20315;-84
2022/02/28 12:55:55;;;;;;;9.30;5.45;;;12.80;66.50;;;;;;6125891;23;20098;-84